createdAt,value
2018-09-24T00:01:19.368Z,18.80
2018-09-24T00:11:24.332Z,18.80
2018-09-24T00:21:29.632Z,18.80
2018-09-24T00:31:34.325Z,18.80
2018-09-24T00:41:39.385Z,18.70
2018-09-24T00:51:44.124Z,18.70
2018-09-24T01:01:48.884Z,18.70
2018-09-24T01:11:53.564Z,18.70
2018-09-24T01:21:58.272Z,18.70
2018-09-24T01:32:02.939Z,18.70
2018-09-24T01:42:07.506Z,18.70
2018-09-24T01:52:12.306Z,18.70
2018-09-24T02:02:17.589Z,18.70
2018-09-24T02:12:22.355Z,18.70
2018-09-24T02:22:29.726Z,18.70
2018-09-24T02:32:34.429Z,18.70
2018-09-24T02:42:39.224Z,18.70
2018-09-24T02:52:43.964Z,18.70
2018-09-24T03:02:48.532Z,18.70
2018-09-24T03:12:53.549Z,18.70
2018-09-24T03:22:58.219Z,18.70
2018-09-24T03:33:03.196Z,18.70
2018-09-24T03:43:07.909Z,18.60
2018-09-24T03:53:12.634Z,18.60
2018-09-24T04:03:18.250Z,18.60
2018-09-24T04:13:28.203Z,18.60
2018-09-24T04:23:38.179Z,18.60
2018-09-24T04:33:48.113Z,18.60
2018-09-24T04:43:57.762Z,18.50
2018-09-24T04:54:07.602Z,18.50
2018-09-24T05:04:17.328Z,18.50
2018-09-24T05:14:27.287Z,18.50
2018-09-24T05:24:37.161Z,18.50
2018-09-24T05:34:46.971Z,18.50
2018-09-24T05:44:56.800Z,18.50
2018-09-24T05:55:06.763Z,18.50
2018-09-24T06:05:17.735Z,18.50
2018-09-24T06:15:27.640Z,18.50
2018-09-24T06:25:37.299Z,18.50
2018-09-24T06:35:47.228Z,18.50
2018-09-24T06:45:56.942Z,18.40
2018-09-24T06:56:06.775Z,18.50
2018-09-24T07:06:17.421Z,18.40
2018-09-24T07:16:27.355Z,18.40
2018-09-24T07:26:37.427Z,18.40
2018-09-24T07:36:48.334Z,18.40
2018-09-24T07:46:58.191Z,18.40
2018-09-24T07:57:08.254Z,18.40
2018-09-24T08:07:17.996Z,18.40
2018-09-24T08:17:28.010Z,18.40
2018-09-24T08:27:37.914Z,18.40
2018-09-24T08:37:47.600Z,18.30
2018-09-24T08:47:57.400Z,18.30
2018-09-24T08:58:07.176Z,18.30
2018-09-24T09:08:17.218Z,18.30
2018-09-24T09:18:26.904Z,18.30
2018-09-24T09:28:37.693Z,18.30
2018-09-24T09:38:47.520Z,18.30
2018-09-24T09:48:57.372Z,18.30
2018-09-24T09:59:07.266Z,18.30
2018-09-24T10:09:17.008Z,18.30
2018-09-24T10:19:26.843Z,18.20
2018-09-24T10:29:36.833Z,18.20
2018-09-24T10:39:46.816Z,18.20
2018-09-24T10:49:56.497Z,18.20
2018-09-24T11:00:06.305Z,18.20
2018-09-24T11:10:16.415Z,18.20
2018-09-24T11:20:26.157Z,18.20
2018-09-24T11:30:35.891Z,18.20
2018-09-24T11:40:45.780Z,18.20
2018-09-24T11:50:55.681Z,18.20
2018-09-24T12:01:05.395Z,18.10
2018-09-24T12:11:15.158Z,18.10
2018-09-24T12:21:24.824Z,18.10
2018-09-24T12:31:34.816Z,18.10
2018-09-24T12:41:44.529Z,18.10
2018-09-24T12:51:54.285Z,18.10
2018-09-24T13:02:04.107Z,18.10
2018-09-24T13:12:14.034Z,18.10
2018-09-24T13:22:24.317Z,18.10
2018-09-24T13:32:34.067Z,18.10
2018-09-24T13:42:43.968Z,18.10
2018-09-24T13:52:53.784Z,18.10
2018-09-24T14:03:03.576Z,18.10
2018-09-24T14:13:13.520Z,18.10
2018-09-24T14:23:23.496Z,18.10
2018-09-24T14:33:33.203Z,18.10
2018-09-24T14:43:43.079Z,18.10
2018-09-24T14:53:52.892Z,18.10
2018-09-24T15:04:02.680Z,18.10
2018-09-24T15:14:12.603Z,18.10
2018-09-24T15:24:22.278Z,18.10
2018-09-24T15:34:32.241Z,18.10
2018-09-24T15:44:42.054Z,18.10
2018-09-24T15:54:51.824Z,18.10
2018-09-24T16:05:02.769Z,18.10
2018-09-24T16:15:13.256Z,18.00
2018-09-24T16:25:22.925Z,18.10
2018-09-24T16:35:32.791Z,18.00
2018-09-24T16:45:42.572Z,18.00
2018-09-24T16:55:52.271Z,18.00
2018-09-24T17:06:09.977Z,18.00
2018-09-24T17:16:19.915Z,18.00
2018-09-24T17:26:29.661Z,18.00
2018-09-24T17:36:39.512Z,18.00
2018-09-24T17:46:49.320Z,18.00
2018-09-24T17:56:59.055Z,18.00
2018-09-24T18:07:09.001Z,18.00
2018-09-24T18:17:18.734Z,18.00
2018-09-24T18:27:28.534Z,18.00
2018-09-24T18:37:38.466Z,18.00
2018-09-24T18:47:48.091Z,18.00
2018-09-24T18:57:57.809Z,18.00
2018-09-24T19:08:07.620Z,17.90
2018-09-24T19:18:17.526Z,17.90
2018-09-24T19:28:27.553Z,17.90
2018-09-24T19:38:37.482Z,17.90
2018-09-24T19:48:47.248Z,17.90
2018-09-24T19:58:58.221Z,17.90
2018-09-24T20:09:08.001Z,17.90
2018-09-24T20:19:17.957Z,17.90
2018-09-24T20:29:27.795Z,17.90
2018-09-24T20:39:37.495Z,17.90
2018-09-24T20:49:47.580Z,17.90
2018-09-24T20:59:58.492Z,17.80
2018-09-24T21:10:08.495Z,17.80
2018-09-24T21:20:19.388Z,17.80
2018-09-24T21:30:29.478Z,17.80
2018-09-24T21:40:39.256Z,17.80
2018-09-24T21:50:49.025Z,17.80
2018-09-24T22:00:58.887Z,17.80
2018-09-24T22:11:08.674Z,17.80
2018-09-24T22:21:18.473Z,17.80
2018-09-24T22:31:28.268Z,17.70
2018-09-24T22:41:38.036Z,17.80
2018-09-24T22:51:47.835Z,17.80
2018-09-24T23:01:57.820Z,17.70
2018-09-24T23:12:07.659Z,17.70
2018-09-24T23:22:17.680Z,17.70
2018-09-24T23:32:27.460Z,17.70
2018-09-24T23:42:37.467Z,17.70
2018-09-24T23:52:47.645Z,17.70
